Amherst, OH

1:46 AM EDT on September 16, 2014 (GMT -0400)
Amherst Township | Change Station
CLOSE
Current Station
Personal Weather Station
Location: Amherst, OH
Elevation: 725 ft
Nearby Weather Stations

Elev 725 ft 41.40 °N, 82.21 °W | Updated 16 minutes ago

Overcast
Overcast
55.3 °F
Feels Like 55.3 °F
N
2.0
Wind Variable Wind from NW
Gusts 2.0 mph

Today
High -- | Low -- °F
--% Chance of Precip.
Yesterday
High -- | Low -- °F
Precip. -- in
7:10 AM 7:36 PM
Waning Gibbous, 48% visible
Pressure 30.09 in
Visibility 10.0 miles
Clouds Overcast 500 ft
Dew Point 54 °F
Humidity 94%
Rainfall 0.02 in
Snow Depth Not available.
UV 0 out of 12
Pollen 3.70 out of 12
Ozone Good
PM2.5 Moderate
Flu Activity Not available.
SPECI KLPR 160528Z AUTO 00000KT 10SM OVC005 14/12 A3009 RMK AO2 CIG 003V008 P0001 T01440122 TSNO

More Conditions Fewer Conditions

Pressure 30.09 in
Visibility 10.0 miles
Clouds Overcast 500 ft
Dew Point 54 °F
Humidity 94%
Rainfall 0.02 in
Snow Depth Not available.
UV 0 out of 12
Pollen 3.70 out of 12
Ozone Good
PM2.5 Moderate
Flu Activity Not available.
SPECI KLPR 160528Z AUTO 00000KT 10SM OVC005 14/12 A3009 RMK AO2 CIG 003V008 P0001 T01440122 TSNO

More Conditions Fewer Conditions

10-Day Weather Forecast

Almanac

Astronomy

Sep. 16, 2014 Rise Set
Actual Time 7:10 AM EDT 7:36 PM EDT
Civil Twilight 6:42 AM EDT 8:04 PM EDT
Nautical Twilight 6:10 AM EDT 8:36 PM EDT
Astronomical Twilight 5:36 AM EDT 9:10 PM EDT
Moon 12:16 AM EDT 3:02 PM EDT
Length of Visible Light 13h 21m
Length of Day
12h 26m
Tomorrow will be 2m 44s shorter.
Waning Gibbous, 48% of the Moon is Illuminated
Today
Waning Gibbous
Sep 24
New
Oct 1
First Quarter
Oct 8
Full
Oct 15
Last Quarter

Today's Extremes

State Highs State Lows

Community

WunderPhotos

Upload Photos

1,753,702 photos uploaded!

Nearby

Air Quality

  Air Quality AQ Index Pollutant
Yesterday Good
PM10
Yesterday Good
OZONE
Current Moderate
PM2.5
Current Good
OZONE
Tuesday Good
PM2.5
Tuesday Good
OZONE
Wednesday Good
PM2.5
Wednesday Good
OZONE
Thursday Moderate
PM2.5
Thursday Good
OZONE
Friday Moderate
PM2.5
Friday Good
OZONE

Snow Depth

Station Depth Elevation
No new snow has been reported.

Earthquake Activity

City Distance Mag. Time & Date
No recent earthquake activity has been reported nearby.
Minimum magnitude displayed is 2.5.

Coastal Water Temperatures

Place Temperature
Cleveland, OH 66.9 °F
Marblehead, OH 66.0 °F
Fairport, OH 66.0 °F

Nearby Weather Stations